ΕΜΥ, Εθνική Μετεωρολογική Υπηρεσία - Δελτία Καιρού, Προγνώσεις

ΑΕΡΟΝΑΥΤΙΛΙΑ

GREEK AIRPORTS CODES

LGSR 170720Z 03006KT 9999 FEW020 22/18 Q1018=

EUROPEAN AIRPORTS CODES

LFPO 170700Z VRB02KT 9999 BKN040 13/12 Q1011 TEMPO 2500-RADZ BKN007=